sensor_id;sensor_type;location;lat;lon;timestamp;pressure;altitude;pressure_sealevel;temperature;humidity
63097;BME280;49185;42.320;23.198;2022-11-15T00:01:16;95431.41;;;0.27;88.14
63097;BME280;49185;42.320;23.198;2022-11-15T00:03:42;95427.34;;;1.04;84.54
63097;BME280;49185;42.320;23.198;2022-11-15T00:06:08;95427.94;;;1.45;81.38
63097;BME280;49185;42.320;23.198;2022-11-15T00:08:34;95419.41;;;0.89;81.15
63097;BME280;49185;42.320;23.198;2022-11-15T00:11:01;95433.84;;;0.21;84.11
63097;BME280;49185;42.320;23.198;2022-11-15T00:13:27;95432.25;;;-0.22;85.58
63097;BME280;49185;42.320;23.198;2022-11-15T00:15:56;95423.75;;;-0.24;85.81
63097;BME280;49185;42.320;23.198;2022-11-15T00:18:22;95429.97;;;0.00;85.59
63097;BME280;49185;42.320;23.198;2022-11-15T00:20:47;95423.63;;;-0.14;85.73
63097;BME280;49185;42.320;23.198;2022-11-15T00:23:13;95420.56;;;0.38;83.79
63097;BME280;49185;42.320;23.198;2022-11-15T00:25:39;95428.34;;;0.63;82.64
63097;BME280;49185;42.320;23.198;2022-11-15T00:28:04;95421.72;;;0.36;83.20
63097;BME280;49185;42.320;23.198;2022-11-15T00:30:30;95416.38;;;-0.04;84.49
63097;BME280;49185;42.320;23.198;2022-11-15T00:32:55;95426.19;;;0.03;84.26
63097;BME280;49185;42.320;23.198;2022-11-15T00:35:21;95420.59;;;0.30;84.03
63097;BME280;49185;42.320;23.198;2022-11-15T00:37:47;95425.56;;;-0.16;85.02
63097;BME280;49185;42.320;23.198;2022-11-15T00:40:13;95429.81;;;-0.31;86.37
63097;BME280;49185;42.320;23.198;2022-11-15T00:42:39;95428.34;;;-0.42;86.39
63097;BME280;49185;42.320;23.198;2022-11-15T00:45:05;95424.06;;;-0.51;87.32
63097;BME280;49185;42.320;23.198;2022-11-15T00:47:31;95425.72;;;-0.50;87.26
63097;BME280;49185;42.320;23.198;2022-11-15T00:49:56;95422.94;;;-0.57;87.60
63097;BME280;49185;42.320;23.198;2022-11-15T00:52:22;95425.22;;;-0.62;88.02
63097;BME280;49185;42.320;23.198;2022-11-15T00:54:47;95436.34;;;-0.52;88.25
63097;BME280;49185;42.320;23.198;2022-11-15T00:57:13;95425.56;;;-0.49;88.05
63097;BME280;49185;42.320;23.198;2022-11-15T00:59:38;95416.25;;;-0.60;87.89
63097;BME280;49185;42.320;23.198;2022-11-15T01:02:03;95419.19;;;-0.54;88.48
63097;BME280;49185;42.320;23.198;2022-11-15T01:04:29;95417.22;;;-0.52;87.68
63097;BME280;49185;42.320;23.198;2022-11-15T01:06:54;95422.00;;;-0.48;88.18
63097;BME280;49185;42.320;23.198;2022-11-15T01:09:20;95424.25;;;-0.45;87.96
63097;BME280;49185;42.320;23.198;2022-11-15T01:11:45;95422.78;;;-0.47;87.72
63097;BME280;49185;42.320;23.198;2022-11-15T01:14:11;95418.38;;;-0.14;87.31
63097;BME280;49185;42.320;23.198;2022-11-15T01:16:36;95423.94;;;-0.25;86.29
63097;BME280;49185;42.320;23.198;2022-11-15T01:19:02;95418.53;;;-0.48;86.83
63097;BME280;49185;42.320;23.198;2022-11-15T01:21:27;95427.19;;;-0.56;87.32
63097;BME280;49185;42.320;23.198;2022-11-15T01:23:54;95432.09;;;-0.61;87.31
63097;BME280;49185;42.320;23.198;2022-11-15T01:26:19;95420.66;;;-0.68;87.42
63097;BME280;49185;42.320;23.198;2022-11-15T01:28:45;95422.78;;;-0.72;87.75
63097;BME280;49185;42.320;23.198;2022-11-15T01:31:19;95418.22;;;-0.62;87.31
63097;BME280;49185;42.320;23.198;2022-11-15T01:33:46;95423.25;;;-0.68;86.93
63097;BME280;49185;42.320;23.198;2022-11-15T01:36:16;95430.09;;;-0.75;87.48
63097;BME280;49185;42.320;23.198;2022-11-15T01:38:42;95434.06;;;-0.63;87.54
63097;BME280;49185;42.320;23.198;2022-11-15T01:41:19;95427.81;;;-0.79;87.52
63097;BME280;49185;42.320;23.198;2022-11-15T01:43:48;95432.69;;;-0.84;88.09
63097;BME280;49185;42.320;23.198;2022-11-15T01:46:25;95434.97;;;-0.89;87.83
63097;BME280;49185;42.320;23.198;2022-11-15T01:48:53;95438.22;;;-0.87;88.19
63097;BME280;49185;42.320;23.198;2022-11-15T01:51:24;95429.13;;;-0.83;87.95
63097;BME280;49185;42.320;23.198;2022-11-15T01:53:55;95428.47;;;-0.77;88.09
63097;BME280;49185;42.320;23.198;2022-11-15T01:56:24;95434.19;;;-0.73;88.13
63097;BME280;49185;42.320;23.198;2022-11-15T01:58:53;95440.06;;;-0.79;88.22
63097;BME280;49185;42.320;23.198;2022-11-15T02:01:21;95439.56;;;-0.83;87.95
63097;BME280;49185;42.320;23.198;2022-11-15T02:03:56;95444.13;;;-0.85;88.26
63097;BME280;49185;42.320;23.198;2022-11-15T02:06:23;95441.88;;;-0.63;87.54
63097;BME280;49185;42.320;23.198;2022-11-15T02:08:49;95433.56;;;-0.67;87.25
63097;BME280;49185;42.320;23.198;2022-11-15T02:11:15;95425.22;;;-0.54;86.83
63097;BME280;49185;42.320;23.198;2022-11-15T02:13:40;95429.59;;;-0.71;86.91
63097;BME280;49185;42.320;23.198;2022-11-15T02:16:22;95428.81;;;-0.80;87.45
63097;BME280;49185;42.320;23.198;2022-11-15T02:37:52;95408.06;;;-0.73;88.95
63097;BME280;49185;42.320;23.198;2022-11-15T02:43:08;95399.38;;;-0.82;88.58
63097;BME280;49185;42.320;23.198;2022-11-15T02:45:45;95410.03;;;-0.83;88.71
63097;BME280;49185;42.320;23.198;2022-11-15T02:48:15;95405.59;;;-0.83;88.79
63097;BME280;49185;42.320;23.198;2022-11-15T02:50:42;95407.88;;;-0.88;88.68
63097;BME280;49185;42.320;23.198;2022-11-15T02:53:08;95402.34;;;-0.52;88.14
63097;BME280;49185;42.320;23.198;2022-11-15T02:55:40;95400.38;;;0.08;83.74
63097;BME280;49185;42.320;23.198;2022-11-15T02:58:27;95404.91;;;0.14;81.17
63097;BME280;49185;42.320;23.198;2022-11-15T03:06:41;95415.66;;;-1.12;86.68
63097;BME280;49185;42.320;23.198;2022-11-15T03:09:33;95413.28;;;-1.40;87.64
63097;BME280;49185;42.320;23.198;2022-11-15T03:12:06;95409.50;;;-1.46;87.75
63097;BME280;49185;42.320;23.198;2022-11-15T03:14:37;95408.03;;;-1.48;88.23
63097;BME280;49185;42.320;23.198;2022-11-15T03:17:16;95408.19;;;-1.42;88.53
63097;BME280;49185;42.320;23.198;2022-11-15T03:19:47;95402.97;;;-1.42;88.74
63097;BME280;49185;42.320;23.198;2022-11-15T03:22:21;95408.53;;;-1.45;88.27
63097;BME280;49185;42.320;23.198;2022-11-15T03:24:52;95403.69;;;-1.31;88.79
63097;BME280;49185;42.320;23.198;2022-11-15T03:27:22;95397.34;;;-1.29;88.00
63097;BME280;49185;42.320;23.198;2022-11-15T03:29:59;95397.34;;;-1.29;88.34
63097;BME280;49185;42.320;23.198;2022-11-15T03:32:28;95396.31;;;-1.44;88.85
63097;BME280;49185;42.320;23.198;2022-11-15T03:35:01;95392.38;;;-1.48;88.78
63097;BME280;49185;42.320;23.198;2022-11-15T03:37:36;95403.63;;;-1.48;88.61
63097;BME280;49185;42.320;23.198;2022-11-15T03:40:04;95396.94;;;-1.50;88.94
63097;BME280;49185;42.320;23.198;2022-11-15T03:45:13;95381.34;;;-1.34;88.42
63097;BME280;49185;42.320;23.198;2022-11-15T03:47:48;95382.00;;;-1.32;88.22
63097;BME280;49185;42.320;23.198;2022-11-15T03:50:17;95373.50;;;-1.26;88.43
63097;BME280;49185;42.320;23.198;2022-11-15T03:52:48;95377.72;;;-1.33;87.56
63097;BME280;49185;42.320;23.198;2022-11-15T03:55:18;95374.13;;;-1.48;88.69
63097;BME280;49185;42.320;23.198;2022-11-15T03:57:44;95362.75;;;-1.31;87.91
63097;BME280;49185;42.320;23.198;2022-11-15T04:00:10;95362.03;;;-1.49;88.40
63097;BME280;49185;42.320;23.198;2022-11-15T04:02:36;95371.47;;;-1.57;88.70
63097;BME280;49185;42.320;23.198;2022-11-15T04:05:02;95356.22;;;-1.27;88.17
63097;BME280;49185;42.320;23.198;2022-11-15T04:07:28;95356.88;;;-1.25;87.43
63097;BME280;49185;42.320;23.198;2022-11-15T04:09:53;95349.19;;;-1.43;87.45
63097;BME280;49185;42.320;23.198;2022-11-15T04:12:18;95359.38;;;-1.58;88.24
63097;BME280;49185;42.320;23.198;2022-11-15T04:14:44;95355.13;;;-1.67;88.46
63097;BME280;49185;42.320;23.198;2022-11-15T04:17:09;95359.84;;;-1.70;88.88
63097;BME280;49185;42.320;23.198;2022-11-15T04:19:35;95347.19;;;-1.57;89.01
63097;BME280;49185;42.320;23.198;2022-11-15T04:22:00;95351.97;;;-1.36;88.04
63097;BME280;49185;42.320;23.198;2022-11-15T04:24:26;95349.38;;;-1.36;87.60
63097;BME280;49185;42.320;23.198;2022-11-15T04:26:51;95346.03;;;-1.63;87.94
63097;BME280;49185;42.320;23.198;2022-11-15T04:29:17;95346.28;;;-1.74;88.82
63097;BME280;49185;42.320;23.198;2022-11-15T04:31:42;95347.38;;;-1.85;88.54
63097;BME280;49185;42.320;23.198;2022-11-15T04:34:07;95357.16;;;-1.87;89.22
63097;BME280;49185;42.320;23.198;2022-11-15T04:36:33;95355.50;;;-1.88;89.56
63097;BME280;49185;42.320;23.198;2022-11-15T04:38:58;95355.84;;;-1.91;89.08
63097;BME280;49185;42.320;23.198;2022-11-15T04:41:24;95348.19;;;-1.93;89.45
63097;BME280;49185;42.320;23.198;2022-11-15T04:43:49;95354.25;;;-1.84;89.93
63097;BME280;49185;42.320;23.198;2022-11-15T04:46:15;95343.16;;;-1.43;88.86
63097;BME280;49185;42.320;23.198;2022-11-15T04:48:40;95343.53;;;-1.22;86.96
63097;BME280;49185;42.320;23.198;2022-11-15T04:51:06;95345.00;;;-1.11;86.36
63097;BME280;49185;42.320;23.198;2022-11-15T04:53:31;95350.19;;;-1.19;85.60
63097;BME280;49185;42.320;23.198;2022-11-15T04:55:56;95347.72;;;-1.37;86.32
63097;BME280;49185;42.320;23.198;2022-11-15T04:58:22;95353.00;;;-0.96;84.16
63097;BME280;49185;42.320;23.198;2022-11-15T05:00:47;95342.66;;;-1.47;85.53
63097;BME280;49185;42.320;23.198;2022-11-15T05:03:13;95358.53;;;-1.75;86.50
63097;BME280;49185;42.320;23.198;2022-11-15T05:05:38;95348.38;;;-1.86;87.91
63097;BME280;49185;42.320;23.198;2022-11-15T05:08:04;95357.00;;;-1.85;88.29
63097;BME280;49185;42.320;23.198;2022-11-15T05:10:29;95349.25;;;-1.69;88.17
63097;BME280;49185;42.320;23.198;2022-11-15T05:12:55;95343.38;;;-1.71;87.62
63097;BME280;49185;42.320;23.198;2022-11-15T05:15:20;95341.34;;;-1.43;87.33
63097;BME280;49185;42.320;23.198;2022-11-15T05:17:46;95337.66;;;-1.16;84.71
63097;BME280;49185;42.320;23.198;2022-11-15T05:20:12;95350.38;;;-1.12;84.35
63097;BME280;49185;42.320;23.198;2022-11-15T05:22:37;95343.88;;;-1.17;84.11
63097;BME280;49185;42.320;23.198;2022-11-15T05:25:03;95337.69;;;-1.58;85.26
63097;BME280;49185;42.320;23.198;2022-11-15T05:27:29;95347.94;;;-1.73;86.83
63097;BME280;49185;42.320;23.198;2022-11-15T05:29:54;95354.16;;;-1.66;87.42
63097;BME280;49185;42.320;23.198;2022-11-15T05:32:20;95353.81;;;-1.71;88.22
63097;BME280;49185;42.320;23.198;2022-11-15T05:34:46;95366.19;;;-1.73;88.92
63097;BME280;49185;42.320;23.198;2022-11-15T05:37:12;95369.41;;;-1.79;89.26
63097;BME280;49185;42.320;23.198;2022-11-15T05:39:38;95372.66;;;-1.77;89.87
63097;BME280;49185;42.320;23.198;2022-11-15T05:42:12;95373.97;;;-1.81;89.67
63097;BME280;49185;42.320;23.198;2022-11-15T05:44:41;95371.00;;;-1.86;89.46
63097;BME280;49185;42.320;23.198;2022-11-15T05:47:13;95362.88;;;-1.83;89.26
63097;BME280;49185;42.320;23.198;2022-11-15T05:49:40;95369.53;;;-0.71;88.19
63097;BME280;49185;42.320;23.198;2022-11-15T05:52:10;95365.81;;;0.68;82.45
63097;BME280;49185;42.320;23.198;2022-11-15T05:54:37;95362.78;;;1.34;79.17
63097;BME280;49185;42.320;23.198;2022-11-15T05:57:05;95351.44;;;2.69;71.53
63097;BME280;49185;42.320;23.198;2022-11-15T05:59:31;95357.25;;;3.87;65.84
63097;BME280;49185;42.320;23.198;2022-11-15T06:01:58;95354.50;;;5.27;60.14
63097;BME280;49185;42.320;23.198;2022-11-15T06:04:23;95362.34;;;5.00;58.96
63097;BME280;49185;42.320;23.198;2022-11-15T06:06:49;95357.22;;;6.07;56.24
63097;BME280;49185;42.320;23.198;2022-11-15T06:09:14;95351.31;;;5.92;55.23
63097;BME280;49185;42.320;23.198;2022-11-15T06:11:40;95354.56;;;6.14;55.30
63097;BME280;49185;42.320;23.198;2022-11-15T06:14:05;95344.53;;;7.08;52.10
63097;BME280;49185;42.320;23.198;2022-11-15T06:16:31;95345.84;;;5.86;56.81
63097;BME280;49185;42.320;23.198;2022-11-15T06:18:56;95346.00;;;6.25;56.49
63097;BME280;49185;42.320;23.198;2022-11-15T06:21:22;95351.94;;;6.14;56.86
63097;BME280;49185;42.320;23.198;2022-11-15T06:23:47;95337.72;;;6.15;56.76
63097;BME280;49185;42.320;23.198;2022-11-15T06:26:13;95340.91;;;7.02;54.01
63097;BME280;49185;42.320;23.198;2022-11-15T06:28:38;95337.63;;;8.83;49.51
63097;BME280;49185;42.320;23.198;2022-11-15T06:31:05;95331.84;;;8.05;51.72
63097;BME280;49185;42.320;23.198;2022-11-15T06:33:31;95338.72;;;7.63;53.43
63097;BME280;49185;42.320;23.198;2022-11-15T06:36:03;95332.69;;;9.35;48.39
63097;BME280;49185;42.320;23.198;2022-11-15T06:38:29;95342.47;;;9.04;50.40
63097;BME280;49185;42.320;23.198;2022-11-15T06:41:04;95345.00;;;8.62;51.64
63097;BME280;49185;42.320;23.198;2022-11-15T06:43:29;95338.38;;;9.50;50.05
63097;BME280;49185;42.320;23.198;2022-11-15T06:45:55;95330.91;;;9.59;50.33
63097;BME280;49185;42.320;23.198;2022-11-15T06:48:20;95338.81;;;9.89;48.99
63097;BME280;49185;42.320;23.198;2022-11-15T06:50:53;95339.69;;;10.49;48.50
63097;BME280;49185;42.320;23.198;2022-11-15T06:53:19;95331.94;;;10.59;48.46
63097;BME280;49185;42.320;23.198;2022-11-15T06:55:45;95334.34;;;11.71;45.93
63097;BME280;49185;42.320;23.198;2022-11-15T06:58:11;95336.13;;;11.82;45.23
63097;BME280;49185;42.320;23.198;2022-11-15T07:00:36;95338.06;;;11.70;46.11
63097;BME280;49185;42.320;23.198;2022-11-15T07:03:02;95331.75;;;13.49;40.88
63097;BME280;49185;42.320;23.198;2022-11-15T07:05:28;95336.41;;;13.86;40.13
63097;BME280;49185;42.320;23.198;2022-11-15T07:07:55;95331.78;;;10.78;48.44
63097;BME280;49185;42.320;23.198;2022-11-15T07:10:21;95340.28;;;9.62;51.63
63097;BME280;49185;42.320;23.198;2022-11-15T07:12:48;95340.69;;;7.74;55.16
63097;BME280;49185;42.320;23.198;2022-11-15T07:15:14;95339.09;;;7.34;57.25
63097;BME280;49185;42.320;23.198;2022-11-15T07:17:39;95340.97;;;5.90;63.00
63097;BME280;49185;42.320;23.198;2022-11-15T07:20:05;95349.44;;;5.52;65.43
63097;BME280;49185;42.320;23.198;2022-11-15T07:22:31;95347.69;;;5.99;64.00
63097;BME280;49185;42.320;23.198;2022-11-15T07:24:56;95359.19;;;5.45;66.41
63097;BME280;49185;42.320;23.198;2022-11-15T07:27:22;95349.28;;;6.27;63.36
63097;BME280;49185;42.320;23.198;2022-11-15T07:29:47;95344.94;;;7.43;59.18
63097;BME280;49185;42.320;23.198;2022-11-15T07:32:12;95349.94;;;7.26;59.37
63097;BME280;49185;42.320;23.198;2022-11-15T07:34:39;95343.16;;;10.50;49.66
63097;BME280;49185;42.320;23.198;2022-11-15T07:37:05;95349.22;;;9.49;51.28
63097;BME280;49185;42.320;23.198;2022-11-15T07:39:30;95350.03;;;8.89;54.70
63097;BME280;49185;42.320;23.198;2022-11-15T07:41:55;95345.25;;;9.70;52.85
63097;BME280;49185;42.320;23.198;2022-11-15T07:44:21;95339.13;;;9.69;52.93
63097;BME280;49185;42.320;23.198;2022-11-15T07:46:46;95338.38;;;10.16;51.25
63097;BME280;49185;42.320;23.198;2022-11-15T07:49:12;95336.31;;;11.18;48.86
63097;BME280;49185;42.320;23.198;2022-11-15T07:51:37;95335.72;;;10.75;49.49
63097;BME280;49185;42.320;23.198;2022-11-15T07:54:03;95348.88;;;9.45;54.47
63097;BME280;49185;42.320;23.198;2022-11-15T07:56:28;95345.09;;;10.19;52.73
63097;BME280;49185;42.320;23.198;2022-11-15T07:58:53;95339.31;;;10.69;51.43
63097;BME280;49185;42.320;23.198;2022-11-15T08:01:19;95338.03;;;11.53;49.24
63097;BME280;49185;42.320;23.198;2022-11-15T08:03:44;95333.59;;;11.75;48.65
63097;BME280;49185;42.320;23.198;2022-11-15T08:06:10;95341.31;;;11.89;47.98
63097;BME280;49185;42.320;23.198;2022-11-15T08:08:35;95343.44;;;9.94;52.94
63097;BME280;49185;42.320;23.198;2022-11-15T08:11:01;95333.50;;;9.78;55.37
63097;BME280;49185;42.320;23.198;2022-11-15T08:13:27;95334.44;;;9.11;57.38
63097;BME280;49185;42.320;23.198;2022-11-15T08:16:00;95335.56;;;9.87;56.46
63097;BME280;49185;42.320;23.198;2022-11-15T08:18:26;95341.16;;;9.98;55.76
63097;BME280;49185;42.320;23.198;2022-11-15T08:20:51;95326.91;;;11.73;50.82
63097;BME280;49185;42.320;23.198;2022-11-15T08:23:17;95325.97;;;12.30;50.06
63097;BME280;49185;42.320;23.198;2022-11-15T08:25:42;95325.63;;;11.75;51.41
63097;BME280;49185;42.320;23.198;2022-11-15T08:28:10;95329.78;;;10.85;54.97
63097;BME280;49185;42.320;23.198;2022-11-15T08:30:37;95326.25;;;11.66;52.48
63097;BME280;49185;42.320;23.198;2022-11-15T08:33:04;95331.69;;;11.88;51.86
63097;BME280;49185;42.320;23.198;2022-11-15T08:35:30;95322.31;;;11.85;52.05
63097;BME280;49185;42.320;23.198;2022-11-15T08:37:55;95318.19;;;11.32;53.39
63097;BME280;49185;42.320;23.198;2022-11-15T08:40:21;95318.31;;;11.54;52.39
63097;BME280;49185;42.320;23.198;2022-11-15T08:42:47;95320.16;;;10.55;56.70
63097;BME280;49185;42.320;23.198;2022-11-15T08:45:13;95319.19;;;9.91;58.18
63097;BME280;49185;42.320;23.198;2022-11-15T08:47:38;95314.34;;;10.11;58.17
63097;BME280;49185;42.320;23.198;2022-11-15T08:50:04;95305.09;;;10.49;56.44
63097;BME280;49185;42.320;23.198;2022-11-15T08:52:30;95304.09;;;11.48;53.25
63097;BME280;49185;42.320;23.198;2022-11-15T08:54:55;95297.09;;;11.59;51.51
63097;BME280;49185;42.320;23.198;2022-11-15T08:57:21;95298.34;;;11.39;52.55
63097;BME280;49185;42.320;23.198;2022-11-15T08:59:46;95292.56;;;11.14;53.28
63097;BME280;49185;42.320;23.198;2022-11-15T09:02:13;95286.31;;;11.08;54.00
63097;BME280;49185;42.320;23.198;2022-11-15T09:04:40;95280.16;;;10.91;53.31
63097;BME280;49185;42.320;23.198;2022-11-15T09:07:06;95277.00;;;10.30;55.84
63097;BME280;49185;42.320;23.198;2022-11-15T09:09:31;95267.56;;;10.74;54.75
63097;BME280;49185;42.320;23.198;2022-11-15T09:11:56;95263.75;;;10.82;53.76
63097;BME280;49185;42.320;23.198;2022-11-15T09:14:22;95263.19;;;10.68;54.65
63097;BME280;49185;42.320;23.198;2022-11-15T09:16:47;95262.44;;;11.42;52.96
63097;BME280;49185;42.320;23.198;2022-11-15T09:19:13;95254.31;;;12.39;50.50
63097;BME280;49185;42.320;23.198;2022-11-15T09:21:38;95242.09;;;12.43;49.37
63097;BME280;49185;42.320;23.198;2022-11-15T09:24:04;95249.47;;;11.80;51.68
63097;BME280;49185;42.320;23.198;2022-11-15T09:26:29;95239.34;;;11.99;51.30
63097;BME280;49185;42.320;23.198;2022-11-15T09:28:55;95235.88;;;12.37;50.13
63097;BME280;49185;42.320;23.198;2022-11-15T09:31:20;95230.41;;;12.27;51.71
63097;BME280;49185;42.320;23.198;2022-11-15T09:33:46;95227.94;;;12.20;51.16
63097;BME280;49185;42.320;23.198;2022-11-15T09:36:12;95223.03;;;11.95;51.49
63097;BME280;49185;42.320;23.198;2022-11-15T09:38:37;95213.00;;;11.68;52.27
63097;BME280;49185;42.320;23.198;2022-11-15T09:48:48;95193.81;;;13.16;48.26
63097;BME280;49185;42.320;23.198;2022-11-15T09:51:28;95199.09;;;12.39;50.23
63097;BME280;49185;42.320;23.198;2022-11-15T09:54:29;95194.25;;;12.80;49.73
63097;BME280;49185;42.320;23.198;2022-11-15T09:57:09;95191.91;;;12.89;49.41
63097;BME280;49185;42.320;23.198;2022-11-15T09:59:38;95189.75;;;13.13;47.60
63097;BME280;49185;42.320;23.198;2022-11-15T10:03:09;95182.00;;;13.39;48.24
63097;BME280;49185;42.320;23.198;2022-11-15T10:05:28;95177.53;;;14.35;44.94
63097;BME280;49185;42.320;23.198;2022-11-15T10:10:45;95180.50;;;13.53;47.95
63097;BME280;49185;42.320;23.198;2022-11-15T10:13:22;95169.25;;;14.36;45.62
63097;BME280;49185;42.320;23.198;2022-11-15T10:15:48;95170.50;;;14.18;45.99
63097;BME280;49185;42.320;23.198;2022-11-15T10:18:18;95158.84;;;14.55;45.43
63097;BME280;49185;42.320;23.198;2022-11-15T10:20:58;95158.09;;;14.02;45.55
63097;BME280;49185;42.320;23.198;2022-11-15T10:23:26;95149.31;;;14.75;45.44
63097;BME280;49185;42.320;23.198;2022-11-15T10:26:00;95152.31;;;14.99;44.44
63097;BME280;49185;42.320;23.198;2022-11-15T10:28:27;95144.75;;;14.70;44.75
63097;BME280;49185;42.320;23.198;2022-11-15T10:30:58;95141.22;;;13.54;47.90
63097;BME280;49185;42.320;23.198;2022-11-15T10:36:14;95137.66;;;14.38;45.89
63097;BME280;49185;42.320;23.198;2022-11-15T10:41:20;95115.78;;;16.66;39.84
63097;BME280;49185;42.320;23.198;2022-11-15T10:44:03;95116.25;;;16.88;38.28
63097;BME280;49185;42.320;23.198;2022-11-15T10:46:34;95110.25;;;17.36;37.26
63097;BME280;49185;42.320;23.198;2022-11-15T10:49:15;95099.78;;;17.00;38.39
63097;BME280;49185;42.320;23.198;2022-11-15T10:51:49;95106.44;;;15.88;40.91
63097;BME280;49185;42.320;23.198;2022-11-15T10:54:23;95096.09;;;17.25;38.33
63097;BME280;49185;42.320;23.198;2022-11-15T10:56:54;95095.78;;;17.91;37.05
63097;BME280;49185;42.320;23.198;2022-11-15T10:59:30;95094.63;;;18.21;36.45
63097;BME280;49185;42.320;23.198;2022-11-15T11:01:57;95087.19;;;17.30;38.54
63097;BME280;49185;42.320;23.198;2022-11-15T11:04:22;95080.25;;;17.19;38.66
63097;BME280;49185;42.320;23.198;2022-11-15T11:06:50;95069.75;;;18.48;36.11
63097;BME280;49185;42.320;23.198;2022-11-15T11:09:32;95069.84;;;18.43;36.33
63097;BME280;49185;42.320;23.198;2022-11-15T11:11:58;95072.78;;;18.66;35.61
63097;BME280;49185;42.320;23.198;2022-11-15T11:14:26;95067.81;;;18.35;36.26
63097;BME280;49185;42.320;23.198;2022-11-15T11:17:23;95064.72;;;17.16;39.02
63097;BME280;49185;42.320;23.198;2022-11-15T11:23:02;95056.84;;;17.54;38.45
63097;BME280;49185;42.320;23.198;2022-11-15T11:25:38;95051.59;;;18.16;37.29
63097;BME280;49185;42.320;23.198;2022-11-15T11:28:33;95044.38;;;18.54;36.30
63097;BME280;49185;42.320;23.198;2022-11-15T11:33:59;95037.78;;;18.23;36.16
63097;BME280;49185;42.320;23.198;2022-11-15T11:47:32;94999.13;;;18.32;36.64
63097;BME280;49185;42.320;23.198;2022-11-15T11:50:11;95001.09;;;18.84;35.58
63097;BME280;49185;42.320;23.198;2022-11-15T11:52:56;95004.28;;;19.05;34.69
63097;BME280;49185;42.320;23.198;2022-11-15T11:55:33;95006.31;;;19.13;34.75
63097;BME280;49185;42.320;23.198;2022-11-15T11:58:16;94998.63;;;17.63;37.73
63097;BME280;49185;42.320;23.198;2022-11-15T12:00:50;94997.16;;;18.76;35.96
63097;BME280;49185;42.320;23.198;2022-11-15T12:03:30;94990.31;;;19.91;33.63
63097;BME280;49185;42.320;23.198;2022-11-15T12:06:02;94983.25;;;20.32;32.37
63097;BME280;49185;42.320;23.198;2022-11-15T12:08:43;94980.91;;;19.00;34.61
63097;BME280;49185;42.320;23.198;2022-11-15T12:11:17;94976.03;;;19.16;34.21
63097;BME280;49185;42.320;23.198;2022-11-15T12:13:44;94967.75;;;18.23;35.90
63097;BME280;49185;42.320;23.198;2022-11-15T12:16:20;94975.38;;;16.55;40.37
63097;BME280;49185;42.320;23.198;2022-11-15T12:18:50;94968.81;;;16.32;40.82
63097;BME280;49185;42.320;23.198;2022-11-15T12:21:36;94964.66;;;15.40;43.45
63097;BME280;49185;42.320;23.198;2022-11-15T12:24:12;94957.28;;;14.86;44.48
63097;BME280;49185;42.320;23.198;2022-11-15T12:26:46;94951.41;;;14.58;44.94
63097;BME280;49185;42.320;23.198;2022-11-15T12:29:37;94934.16;;;15.26;43.74
63097;BME280;49185;42.320;23.198;2022-11-15T12:32:04;94939.06;;;14.98;44.55
63097;BME280;49185;42.320;23.198;2022-11-15T12:34:41;94931.16;;;15.37;43.77
63097;BME280;49185;42.320;23.198;2022-11-15T12:47:53;94917.38;;;14.33;46.74
63097;BME280;49185;42.320;23.198;2022-11-15T12:58:38;94907.97;;;13.99;47.77
63097;BME280;49185;42.320;23.198;2022-11-15T13:01:09;94900.41;;;13.65;48.76
63097;BME280;49185;42.320;23.198;2022-11-15T13:03:36;94904.97;;;13.80;48.78
63097;BME280;49185;42.320;23.198;2022-11-15T13:06:39;94904.94;;;13.55;49.24
63097;BME280;49185;42.320;23.198;2022-11-15T13:20:33;94896.66;;;13.66;49.62
63097;BME280;49185;42.320;23.198;2022-11-15T13:22:42;94884.63;;;13.59;49.45
63097;BME280;49185;42.320;23.198;2022-11-15T13:27:58;94889.06;;;13.33;50.37
63097;BME280;49185;42.320;23.198;2022-11-15T13:30:26;94889.16;;;13.53;49.78
63097;BME280;49185;42.320;23.198;2022-11-15T13:32:53;94873.41;;;13.67;49.69
63097;BME280;49185;42.320;23.198;2022-11-15T13:35:21;94877.47;;;13.95;48.44
63097;BME280;49185;42.320;23.198;2022-11-15T13:37:47;94875.66;;;13.27;50.25
63097;BME280;49185;42.320;23.198;2022-11-15T13:40:34;94876.78;;;12.79;52.04
63097;BME280;49185;42.320;23.198;2022-11-15T13:43:30;94883.22;;;12.88;51.33
63097;BME280;49185;42.320;23.198;2022-11-15T13:46:30;94872.41;;;12.67;52.06
63097;BME280;49185;42.320;23.198;2022-11-15T13:49:02;94874.84;;;12.31;53.13
63097;BME280;49185;42.320;23.198;2022-11-15T13:56:31;94869.69;;;13.10;50.81
63097;BME280;49185;42.320;23.198;2022-11-15T13:58:58;94868.53;;;12.90;51.08
63097;BME280;49185;42.320;23.198;2022-11-15T14:01:28;94869.50;;;12.69;52.21
63097;BME280;49185;42.320;23.198;2022-11-15T14:03:58;94866.56;;;12.28;52.81
63097;BME280;49185;42.320;23.198;2022-11-15T14:06:27;94868.75;;;12.04;53.40
63097;BME280;49185;42.320;23.198;2022-11-15T14:09:25;94868.47;;;12.00;54.20
63097;BME280;49185;42.320;23.198;2022-11-15T14:11:55;94867.66;;;12.00;54.42
63097;BME280;49185;42.320;23.198;2022-11-15T14:14:23;94871.53;;;11.87;55.05
63097;BME280;49185;42.320;23.198;2022-11-15T14:16:59;94859.97;;;12.03;54.72
63097;BME280;49185;42.320;23.198;2022-11-15T14:22:22;94861.44;;;11.62;56.17
63097;BME280;49185;42.320;23.198;2022-11-15T14:27:39;94855.66;;;11.20;57.11
63097;BME280;49185;42.320;23.198;2022-11-15T14:30:05;94858.16;;;11.05;58.03
63097;BME280;49185;42.320;23.198;2022-11-15T14:33:00;94868.53;;;10.85;58.52
63097;BME280;49185;42.320;23.198;2022-11-15T14:35:25;94860.03;;;10.66;59.74
63097;BME280;49185;42.320;23.198;2022-11-15T14:37:51;94865.69;;;10.52;60.24
63097;BME280;49185;42.320;23.198;2022-11-15T14:40:21;94865.78;;;10.40;60.93
63097;BME280;49185;42.320;23.198;2022-11-15T14:42:48;94854.88;;;10.25;61.72
63097;BME280;49185;42.320;23.198;2022-11-15T14:45:20;94872.13;;;10.05;62.61
63097;BME280;49185;42.320;23.198;2022-11-15T14:47:46;94868.41;;;9.89;62.95
63097;BME280;49185;42.320;23.198;2022-11-15T14:50:17;94869.78;;;9.75;63.99